Time;durP1;ratioP1;P1;durP2;ratioP2;P2;SDS_P1;SDS_P2;PMS_P1;PMS_P2;Temp;Humidity;BMP_temperature;BMP_pressure;BME280_temperature;BME280_humidity;BME280_pressure;Samples;Min_cycle;Max_cycle;Signal;HPM_P1;HPM_P2
2023/11/29 00:02:18;;;;;;;5.88;5.57;;;;;;;;;;5022550;28;20064;-75
2023/11/29 00:04:48;;;;;;;6.68;5.25;;;;;;;;;;5022715;28;20046;-74
2023/11/29 00:07:18;;;;;;;5.30;4.85;;;;;;;;;;5022991;28;20069;-76
2023/11/29 00:09:48;;;;;;;4.30;4.07;;;;;;;;;;5020981;28;20061;-74
2023/11/29 00:12:18;;;;;;;3.88;3.67;;;;;;;;;;5022788;28;20046;-74
2023/11/29 00:14:49;;;;;;;6.88;6.28;;;;;;;;;;5022624;28;20428;-74
2023/11/29 00:17:21;;;;;;;5.25;4.90;;;;;;;;;;5022280;28;20046;-76
2023/11/29 00:19:51;;;;;;;7.68;7.28;;;;;;;;;;5022260;28;20488;-74
2023/11/29 00:22:21;;;;;;;17.38;16.38;;;;;;;;;;5022066;28;20071;-74
2023/11/29 00:24:51;;;;;;;7.35;6.95;;;;;;;;;;5022227;28;20377;-75
2023/11/29 00:27:22;;;;;;;5.22;4.55;;;;;;;;;;5022013;28;20308;-76
2023/11/29 00:29:53;;;;;;;5.07;4.78;;;;;;;;;;5021945;28;20055;-76
2023/11/29 00:32:22;;;;;;;4.43;4.22;;;;;;;;;;5022244;28;20061;-76
2023/11/29 00:34:54;;;;;;;3.42;3.22;;;;;;;;;;5022278;28;20045;-76
2023/11/29 00:37:26;;;;;;;4.93;4.43;;;;;;;;;;5022515;28;20064;-76
2023/11/29 00:39:56;;;;;;;3.67;3.47;;;;;;;;;;5020512;28;20060;-75
2023/11/29 00:42:27;;;;;;;4.53;4.25;;;;;;;;;;5021965;28;20049;-75
2023/11/29 00:44:57;;;;;;;5.22;4.75;;;;;;;;;;5022031;28;20046;-75
2023/11/29 00:47:28;;;;;;;6.38;5.97;;;;;;;;;;5021849;28;20092;-76
2023/11/29 00:49:58;;;;;;;5.47;5.15;;;;;;;;;;5020512;28;20057;-76
2023/11/29 00:52:28;;;;;;;5.38;4.45;;;;;;;;;;5020420;28;20049;-74
2023/11/29 00:54:58;;;;;;;3.63;3.42;;;;;;;;;;5021785;28;20060;-75
2023/11/29 00:57:29;;;;;;;7.28;6.65;;;;;;;;;;5022132;28;20497;-75
2023/11/29 01:00:00;;;;;;;5.05;4.75;;;;;;;;;;5020422;28;20065;-75
2023/11/29 01:02:31;;;;;;;5.20;4.85;;;;;;;;;;5020492;28;20053;-74
2023/11/29 01:05:18;;;;;;;4.28;3.95;;;;;;;;;;5021934;28;20045;-75
2023/11/29 01:07:49;;;;;;;4.35;3.83;;;;;;;;;;5021949;28;20493;-74
2023/11/29 01:10:52;;;;;;;4.90;4.53;;;;;;;;;;5021889;28;20053;-74
2023/11/29 01:13:23;;;;;;;4.03;3.65;;;;;;;;;;5023124;28;20046;-75
2023/11/29 01:15:53;;;;;;;6.85;4.57;;;;;;;;;;5021569;28;20076;-74
2023/11/29 01:18:23;;;;;;;4.50;4.10;;;;;;;;;;5021446;28;20049;-74
2023/11/29 01:20:54;;;;;;;5.95;4.18;;;;;;;;;;5021302;28;20049;-74
2023/11/29 01:23:24;;;;;;;7.20;3.75;;;;;;;;;;5021838;28;20531;-75
2023/11/29 01:25:54;;;;;;;3.92;3.42;;;;;;;;;;5020113;28;20056;-72
2023/11/29 01:28:24;;;;;;;6.15;5.43;;;;;;;;;;5021529;28;20046;-76
2023/11/29 01:30:55;;;;;;;4.75;4.45;;;;;;;;;;5020156;28;20054;-76
2023/11/29 01:33:25;;;;;;;5.55;4.78;;;;;;;;;;5020633;28;20408;-74
2023/11/29 01:35:57;;;;;;;3.58;3.38;;;;;;;;;;5025306;28;20056;-75
2023/11/29 01:38:26;;;;;;;4.10;3.67;;;;;;;;;;5025579;28;20065;-73
2023/11/29 01:40:57;;;;;;;3.55;3.30;;;;;;;;;;5024566;28;20053;-74
2023/11/29 01:43:28;;;;;;;4.60;4.18;;;;;;;;;;5024533;28;20064;-77
2023/11/29 01:45:58;;;;;;;4.88;4.45;;;;;;;;;;5024429;28;20042;-74
2023/11/29 01:48:28;;;;;;;6.07;5.72;;;;;;;;;;5025572;28;20966;-75
2023/11/29 01:50:59;;;;;;;4.30;3.90;;;;;;;;;;5025771;28;20041;-75
2023/11/29 01:53:31;;;;;;;6.18;5.68;;;;;;;;;;5025411;28;20432;-75
2023/11/29 01:56:06;;;;;;;5.93;5.53;;;;;;;;;;5025118;28;20049;-75
2023/11/29 01:58:36;;;;;;;4.63;4.32;;;;;;;;;;5023698;28;20061;-74
2023/11/29 02:01:07;;;;;;;6.85;6.32;;;;;;;;;;5023698;28;20053;-74
2023/11/29 02:03:37;;;;;;;4.72;4.40;;;;;;;;;;5024564;28;20057;-74
2023/11/29 02:06:08;;;;;;;4.07;3.67;;;;;;;;;;5023338;28;20045;-74
2023/11/29 02:08:38;;;;;;;5.75;5.45;;;;;;;;;;5022926;28;20420;-75
2023/11/29 02:11:12;;;;;;;6.80;5.47;;;;;;;;;;5025589;28;20408;-75
2023/11/29 02:13:43;;;;;;;5.85;5.03;;;;;;;;;;5024659;28;20042;-77
2023/11/29 02:16:13;;;;;;;5.32;4.85;;;;;;;;;;5024241;28;20045;-75
2023/11/29 02:18:43;;;;;;;4.55;4.25;;;;;;;;;;5025127;28;20046;-75
2023/11/29 02:21:13;;;;;;;5.28;4.90;;;;;;;;;;5024115;28;20056;-74
2023/11/29 02:23:51;;;;;;;3.75;3.55;;;;;;;;;;5024972;28;20064;-74
2023/11/29 02:26:22;;;;;;;5.93;5.32;;;;;;;;;;5024807;28;20049;-73
2023/11/29 02:28:53;;;;;;;9.27;8.65;;;;;;;;;;5024322;28;20049;-75
2023/11/29 02:31:22;;;;;;;6.03;5.72;;;;;;;;;;5024402;28;20508;-74
2023/11/29 02:33:53;;;;;;;10.90;10.30;;;;;;;;;;5023012;28;20602;-75
2023/11/29 02:36:22;;;;;;;4.65;4.35;;;;;;;;;;5023499;28;20046;-74
2023/11/29 02:38:53;;;;;;;6.35;6.03;;;;;;;;;;5006785;28;20420;-74
2023/11/29 02:41:25;;;;;;;4.38;4.13;;;;;;;;;;5023537;28;20047;-75
2023/11/29 02:43:56;;;;;;;3.22;3.03;;;;;;;;;;5024328;28;20041;-74
2023/11/29 02:46:25;;;;;;;9.23;8.73;;;;;;;;;;5024012;28;20420;-74
2023/11/29 02:48:57;;;;;;;7.55;7.07;;;;;;;;;;5024576;28;20041;-75
2023/11/29 02:51:28;;;;;;;6.40;6.00;;;;;;;;;;5024094;28;20335;-74
2023/11/29 02:53:59;;;;;;;5.03;3.72;;;;;;;;;;5024075;28;20049;-77
2023/11/29 02:56:29;;;;;;;6.65;6.30;;;;;;;;;;5022812;28;20428;-76
2023/11/29 02:58:59;;;;;;;4.22;3.92;;;;;;;;;;5024595;28;20049;-75
2023/11/29 03:02:34;;;;;;;4.55;4.15;;;;;;;;;;5023908;28;20064;-74
2023/11/29 03:05:05;;;;;;;4.13;3.92;;;;;;;;;;5022165;28;20052;-75
2023/11/29 03:07:36;;;;;;;3.90;3.70;;;;;;;;;;5023730;28;20493;-75
2023/11/29 03:10:08;;;;;;;5.28;4.47;;;;;;;;;;5022370;28;20053;-75
2023/11/29 03:12:39;;;;;;;7.13;4.63;;;;;;;;;;5023154;28;20524;-74
2023/11/29 03:15:09;;;;;;;4.05;3.85;;;;;;;;;;5022913;28;20052;-75
2023/11/29 03:17:39;;;;;;;4.13;3.92;;;;;;;;;;5023429;28;20045;-74
2023/11/29 03:20:11;;;;;;;3.42;3.22;;;;;;;;;;5023645;28;20041;-75
2023/11/29 03:22:42;;;;;;;6.53;3.15;;;;;;;;;;5024010;28;20057;-75
2023/11/29 03:25:12;;;;;;;10.25;3.53;;;;;;;;;;5023072;28;20053;-74
2023/11/29 03:27:44;;;;;;;9.90;3.17;;;;;;;;;;5022738;28;20076;-75
2023/11/29 03:30:15;;;;;;;3.65;3.47;;;;;;;;;;5023074;28;20642;-74
2023/11/29 03:32:46;;;;;;;4.22;3.83;;;;;;;;;;5023637;28;20045;-74
2023/11/29 03:35:16;;;;;;;3.92;2.88;;;;;;;;;;5023718;28;20470;-75
2023/11/29 03:37:46;;;;;;;6.03;4.88;;;;;;;;;;5023898;28;20420;-75
2023/11/29 03:40:16;;;;;;;4.22;4.03;;;;;;;;;;5023653;28;20512;-75
2023/11/29 03:42:47;;;;;;;3.13;3.03;;;;;;;;;;5022824;28;20064;-74
2023/11/29 03:45:18;;;;;;;5.18;4.88;;;;;;;;;;5023111;28;20389;-74
2023/11/29 03:47:49;;;;;;;5.55;5.05;;;;;;;;;;5021989;28;20655;-74
2023/11/29 03:50:22;;;;;;;4.47;4.03;;;;;;;;;;5022505;28;20053;-74
2023/11/29 03:52:54;;;;;;;3.53;3.20;;;;;;;;;;5022595;28;20069;-74
2023/11/29 03:55:24;;;;;;;4.00;3.58;;;;;;;;;;5023638;28;20057;-74
2023/11/29 03:57:54;;;;;;;4.05;3.83;;;;;;;;;;5021795;28;20041;-74
2023/11/29 04:00:24;;;;;;;4.53;3.53;;;;;;;;;;5022986;28;20148;-73
2023/11/29 04:02:54;;;;;;;3.30;3.10;;;;;;;;;;5022801;28;20052;-75
2023/11/29 04:05:26;;;;;;;3.70;3.50;;;;;;;;;;5021328;28;20060;-74
2023/11/29 04:07:56;;;;;;;6.78;3.40;;;;;;;;;;5023262;28;20042;-74
2023/11/29 04:10:29;;;;;;;9.75;5.55;;;;;;;;;;5022018;28;20412;-74
2023/11/29 04:13:00;;;;;;;6.30;2.88;;;;;;;;;;5022577;28;20057;-75
2023/11/29 04:15:31;;;;;;;3.97;3.05;;;;;;;;;;5023175;28;20049;-74
2023/11/29 04:18:02;;;;;;;5.70;5.30;;;;;;;;;;5020846;28;20421;-74
2023/11/29 04:20:33;;;;;;;6.18;2.55;;;;;;;;;;5021147;28;20053;-75
2023/11/29 04:23:03;;;;;;;3.40;2.92;;;;;;;;;;5022261;28;20527;-74
2023/11/29 04:25:33;;;;;;;4.03;2.90;;;;;;;;;;5022331;28;20060;-74
2023/11/29 04:28:04;;;;;;;3.58;3.28;;;;;;;;;;5020540;28;20054;-75
2023/11/29 04:30:35;;;;;;;4.22;3.92;;;;;;;;;;5021940;28;20041;-74
2023/11/29 04:33:06;;;;;;;3.33;3.03;;;;;;;;;;5020633;28;20065;-73
2023/11/29 04:35:37;;;;;;;3.03;2.83;;;;;;;;;;5020974;28;20061;-75
2023/11/29 04:38:09;;;;;;;3.17;3.03;;;;;;;;;;5020495;28;20505;-74
2023/11/29 04:40:40;;;;;;;3.83;3.53;;;;;;;;;;5020840;28;20050;-75
2023/11/29 04:43:10;;;;;;;6.07;5.30;;;;;;;;;;5021620;28;20413;-74
2023/11/29 04:45:40;;;;;;;4.10;3.83;;;;;;;;;;5022229;28;20641;-74
2023/11/29 04:48:10;;;;;;;2.95;2.75;;;;;;;;;;5022130;28;20060;-74
2023/11/29 04:50:41;;;;;;;4.28;3.13;;;;;;;;;;5022617;28;20045;-74
2023/11/29 04:53:11;;;;;;;3.83;3.20;;;;;;;;;;5022055;28;20061;-74
2023/11/29 04:55:41;;;;;;;2.90;2.80;;;;;;;;;;5022306;28;20053;-75
2023/11/29 04:58:14;;;;;;;3.72;3.38;;;;;;;;;;5022109;28;20042;-75
2023/11/29 05:00:46;;;;;;;3.65;3.35;;;;;;;;;;5022116;28;20048;-73
2023/11/29 05:03:19;;;;;;;7.13;3.65;;;;;;;;;;5021636;28;20053;-74
2023/11/29 05:05:50;;;;;;;4.13;3.88;;;;;;;;;;5021716;28;20041;-74
2023/11/29 05:08:21;;;;;;;3.75;3.50;;;;;;;;;;5024236;28;20053;-74
2023/11/29 05:10:51;;;;;;;3.55;3.35;;;;;;;;;;5025726;28;20489;-74
2023/11/29 05:13:21;;;;;;;4.03;3.65;;;;;;;;;;5025506;28;20049;-74
2023/11/29 05:15:51;;;;;;;3.70;3.50;;;;;;;;;;5025897;28;20045;-74
2023/11/29 05:18:22;;;;;;;6.30;3.60;;;;;;;;;;5025543;28;20052;-74
2023/11/29 05:20:53;;;;;;;3.45;3.25;;;;;;;;;;5025415;28;20053;-74
2023/11/29 05:23:29;;;;;;;3.00;2.80;;;;;;;;;;5025692;28;20060;-74
2023/11/29 05:25:59;;;;;;;4.05;3.70;;;;;;;;;;5025969;28;20042;-74
2023/11/29 05:28:33;;;;;;;5.15;3.45;;;;;;;;;;5025641;28;20045;-75
2023/11/29 05:34:07;;;;;;;3.55;3.35;;;;;;;;;;5025961;28;20053;-74
2023/11/29 05:36:37;;;;;;;6.43;3.20;;;;;;;;;;5025699;28;20046;-74
2023/11/29 05:39:09;;;;;;;3.40;3.20;;;;;;;;;;5024685;28;20065;-74
2023/11/29 05:41:39;;;;;;;5.70;2.55;;;;;;;;;;5025054;28;20060;-74
2023/11/29 05:44:09;;;;;;;7.63;3.72;;;;;;;;;;5025465;28;20050;-75
2023/11/29 05:46:42;;;;;;;7.45;6.95;;;;;;;;;;5025709;28;20867;-74
2023/11/29 05:49:12;;;;;;;3.63;3.38;;;;;;;;;;5025240;28;20046;-74
2023/11/29 05:51:42;;;;;;;3.70;3.40;;;;;;;;;;5024730;28;20057;-75
2023/11/29 05:54:13;;;;;;;4.20;3.83;;;;;;;;;;5023823;28;20068;-73
2023/11/29 05:56:43;;;;;;;3.72;3.47;;;;;;;;;;5025026;28;20056;-74
2023/11/29 05:59:13;;;;;;;5.75;5.22;;;;;;;;;;5024990;28;20416;-73
2023/11/29 06:01:43;;;;;;;3.42;3.22;;;;;;;;;;5024935;28;20501;-75
2023/11/29 06:04:14;;;;;;;4.07;3.65;;;;;;;;;;5024163;28;20064;-74
2023/11/29 06:06:45;;;;;;;4.85;4.60;;;;;;;;;;5023960;28;20497;-74
2023/11/29 06:09:17;;;;;;;3.70;3.47;;;;;;;;;;5025252;28;20052;-75
2023/11/29 06:11:47;;;;;;;3.45;3.10;;;;;;;;;;5024813;28;20057;-75
2023/11/29 06:14:49;;;;;;;6.00;5.40;;;;;;;;;;5024336;28;20412;-74
2023/11/29 06:17:19;;;;;;;4.63;4.43;;;;;;;;;;5025007;28;20045;-73
2023/11/29 06:19:58;;;;;;;4.65;3.70;;;;;;;;;;5023667;28;20078;-74
2023/11/29 06:22:28;;;;;;;4.43;3.80;;;;;;;;;;5024326;28;20041;-74
2023/11/29 06:25:00;;;;;;;3.70;3.42;;;;;;;;;;5023959;28;20063;-73
2023/11/29 06:27:31;;;;;;;5.90;5.50;;;;;;;;;;5024732;28;20504;-74
2023/11/29 06:30:00;;;;;;;6.60;6.30;;;;;;;;;;5023085;28;20425;-76
2023/11/29 06:32:31;;;;;;;3.80;3.15;;;;;;;;;;5024882;28;20500;-74
2023/11/29 06:35:01;;;;;;;3.53;3.33;;;;;;;;;;5024349;28;20347;-74
2023/11/29 06:37:33;;;;;;;3.63;3.42;;;;;;;;;;5024029;28;20511;-75
2023/11/29 06:40:04;;;;;;;4.28;3.80;;;;;;;;;;5024469;28;20068;-74
2023/11/29 06:42:35;;;;;;;6.20;3.50;;;;;;;;;;5024491;28;20057;-76
2023/11/29 06:45:05;;;;;;;6.63;3.60;;;;;;;;;;5023545;28;20056;-74
2023/11/29 06:47:39;;;;;;;3.58;3.05;;;;;;;;;;5024019;28;20054;-76
2023/11/29 06:50:10;;;;;;;2.83;2.72;;;;;;;;;;5024161;28;20075;-75
2023/11/29 06:52:42;;;;;;;5.35;4.45;;;;;;;;;;5024420;28;20049;-73
2023/11/29 06:55:16;;;;;;;5.60;3.92;;;;;;;;;;5023880;28;20057;-74
2023/11/29 06:57:46;;;;;;;3.08;2.85;;;;;;;;;;5022699;28;20057;-74
2023/11/29 07:00:21;;;;;;;5.55;3.33;;;;;;;;;;5023488;28;20053;-76
2023/11/29 07:02:52;;;;;;;5.57;3.00;;;;;;;;;;5023984;28;20053;-74
2023/11/29 07:05:22;;;;;;;13.27;3.45;;;;;;;;;;5023503;28;20057;-73
2023/11/29 07:07:52;;;;;;;4.85;3.08;;;;;;;;;;5024098;28;20054;-75
2023/11/29 07:10:25;;;;;;;3.10;2.85;;;;;;;;;;5023573;28;21144;-74
2023/11/29 07:12:56;;;;;;;7.20;3.47;;;;;;;;;;5023743;28;20041;-85
2023/11/29 07:15:26;;;;;;;4.05;3.70;;;;;;;;;;5006587;28;20049;-76
2023/11/29 07:17:56;;;;;;;3.45;3.17;;;;;;;;;;5023808;28;20049;-74
2023/11/29 07:20:27;;;;;;;6.13;5.72;;;;;;;;;;5023304;28;20427;-75
2023/11/29 07:23:11;;;;;;;4.97;3.78;;;;;;;;;;5021883;28;20054;-75
2023/11/29 07:25:41;;;;;;;5.40;3.35;;;;;;;;;;5024032;28;20049;-74
2023/11/29 07:28:11;;;;;;;4.13;3.67;;;;;;;;;;5023497;28;20049;-74
2023/11/29 07:30:41;;;;;;;2.78;2.60;;;;;;;;;;5022418;28;20053;-75
2023/11/29 07:33:12;;;;;;;5.68;5.07;;;;;;;;;;5022670;28;20435;-74
2023/11/29 07:35:42;;;;;;;3.65;3.28;;;;;;;;;;5023129;28;20041;-75
2023/11/29 07:38:13;;;;;;;3.80;3.60;;;;;;;;;;5022303;28;20060;-74
2023/11/29 07:40:43;;;;;;;3.78;3.58;;;;;;;;;;5021817;28;20511;-75
2023/11/29 07:43:13;;;;;;;3.65;2.85;;;;;;;;;;5023552;28;20788;-76
2023/11/29 07:45:44;;;;;;;9.55;2.85;;;;;;;;;;5021783;28;20053;-74
2023/11/29 07:48:14;;;;;;;5.43;3.00;;;;;;;;;;5022989;28;20049;-76
2023/11/29 07:50:44;;;;;;;11.10;3.15;;;;;;;;;;5022666;28;20056;-74
2023/11/29 07:53:14;;;;;;;3.60;2.67;;;;;;;;;;5022743;28;20547;-76
2023/11/29 07:55:45;;;;;;;5.60;5.10;;;;;;;;;;5023139;28;20424;-75
2023/11/29 07:58:16;;;;;;;3.78;3.42;;;;;;;;;;5022922;28;20049;-75
2023/11/29 08:00:59;;;;;;;6.50;4.00;;;;;;;;;;5022248;28;20054;-74
2023/11/29 08:03:29;;;;;;;8.98;4.00;;;;;;;;;;5022433;28;20048;-75
2023/11/29 08:06:00;;;;;;;6.63;4.63;;;;;;;;;;5023337;28;20053;-75
2023/11/29 08:08:31;;;;;;;6.75;3.33;;;;;;;;;;5021478;28;20077;-76
2023/11/29 08:11:01;;;;;;;3.95;3.60;;;;;;;;;;5022549;28;20065;-76
2023/11/29 08:13:32;;;;;;;3.58;3.38;;;;;;;;;;5021052;28;20057;-74
2023/11/29 08:16:06;;;;;;;4.45;4.10;;;;;;;;;;5021833;28;20054;-74
2023/11/29 08:18:37;;;;;;;2.55;2.45;;;;;;;;;;5022297;28;20064;-75
2023/11/29 08:21:08;;;;;;;3.13;2.83;;;;;;;;;;5022242;28;20057;-75
2023/11/29 08:23:38;;;;;;;13.70;3.45;;;;;;;;;;5021975;28;20497;-74
2023/11/29 08:26:10;;;;;;;4.30;3.20;;;;;;;;;;5021315;28;20061;-75
2023/11/29 08:28:40;;;;;;;4.28;4.05;;;;;;;;;;5022206;28;20400;-75
2023/11/29 08:31:10;;;;;;;4.32;3.47;;;;;;;;;;5022756;28;20057;-75
2023/11/29 08:33:41;;;;;;;6.47;2.95;;;;;;;;;;5022553;28;20060;-76
2023/11/29 08:36:15;;;;;;;6.25;2.63;;;;;;;;;;5022038;28;20053;-75
2023/11/29 08:38:47;;;;;;;5.78;2.85;;;;;;;;;;5022174;28;20057;-75
2023/11/29 08:41:18;;;;;;;3.83;3.58;;;;;;;;;;5021430;28;20068;-75
2023/11/29 08:43:48;;;;;;;3.45;3.13;;;;;;;;;;5022092;28;20056;-75
2023/11/29 08:46:19;;;;;;;3.20;2.63;;;;;;;;;;5022209;28;20060;-75
2023/11/29 08:48:50;;;;;;;2.60;2.50;;;;;;;;;;5021763;28;20053;-76
2023/11/29 08:51:21;;;;;;;3.05;2.95;;;;;;;;;;5022512;28;20061;-75
2023/11/29 08:53:51;;;;;;;3.00;2.65;;;;;;;;;;5022436;28;20046;-75
2023/11/29 08:56:22;;;;;;;4.45;2.88;;;;;;;;;;5021703;28;20061;-75
2023/11/29 08:59:04;;;;;;;5.43;2.85;;;;;;;;;;5023202;28;20515;-76
2023/11/29 09:01:34;;;;;;;3.13;2.85;;;;;;;;;;5021787;28;20060;-75
2023/11/29 09:04:05;;;;;;;5.00;4.60;;;;;;;;;;5022006;28;20850;-76
2023/11/29 09:06:36;;;;;;;5.80;3.38;;;;;;;;;;5022353;28;20052;-76
2023/11/29 09:09:08;;;;;;;5.53;5.03;;;;;;;;;;5021728;28;20424;-75
2023/11/29 09:11:39;;;;;;;4.90;4.50;;;;;;;;;;5021466;28;20402;-76
2023/11/29 09:14:09;;;;;;;7.93;3.70;;;;;;;;;;5022036;28;20064;-75
2023/11/29 09:16:39;;;;;;;2.95;2.75;;;;;;;;;;5021963;28;20065;-75
2023/11/29 09:19:10;;;;;;;3.20;2.63;;;;;;;;;;5021910;28;20053;-75
2023/11/29 09:21:41;;;;;;;4.57;3.53;;;;;;;;;;5020759;28;20056;-75
2023/11/29 09:24:11;;;;;;;5.35;4.20;;;;;;;;;;5022048;28;20056;-75
2023/11/29 09:26:42;;;;;;;8.30;4.72;;;;;;;;;;5021999;28;20053;-75
2023/11/29 09:29:12;;;;;;;3.97;3.67;;;;;;;;;;5022317;28;20049;-76
2023/11/29 09:31:43;;;;;;;4.50;4.20;;;;;;;;;;5021644;28;20054;-74
2023/11/29 09:34:12;;;;;;;4.28;3.75;;;;;;;;;;5021223;28;20061;-75
2023/11/29 09:36:44;;;;;;;4.22;4.03;;;;;;;;;;5021538;28;20048;-76
2023/11/29 09:39:17;;;;;;;4.28;2.97;;;;;;;;;;5021807;28;20061;-76
2023/11/29 09:41:47;;;;;;;6.20;4.22;;;;;;;;;;5021721;28;20052;-76
2023/11/29 09:44:18;;;;;;;3.60;3.40;;;;;;;;;;5022000;28;20057;-75
2023/11/29 09:46:49;;;;;;;6.57;6.10;;;;;;;;;;5021557;28;20416;-76
2023/11/29 09:49:21;;;;;;;3.83;3.15;;;;;;;;;;5021725;28;20053;-76
2023/11/29 09:51:52;;;;;;;3.97;3.22;;;;;;;;;;5021972;28;20045;-76
2023/11/29 09:54:21;;;;;;;4.88;3.55;;;;;;;;;;5023241;28;20049;-80
2023/11/29 09:56:52;;;;;;;3.92;3.55;;;;;;;;;;5025429;28;20497;-78
2023/11/29 09:59:23;;;;;;;10.38;4.90;;;;;;;;;;5024888;28;20045;-76
2023/11/29 10:01:54;;;;;;;3.47;3.10;;;;;;;;;;5024631;28;20053;-77
2023/11/29 10:04:25;;;;;;;4.88;2.33;;;;;;;;;;5024985;28;20052;-74
2023/11/29 10:07:00;;;;;;;4.20;2.45;;;;;;;;;;5024953;28;20049;-76
2023/11/29 10:09:36;;;;;;;6.75;5.25;;;;;;;;;;5025035;28;20053;-75
2023/11/29 10:12:08;;;;;;;7.65;2.78;;;;;;;;;;5024558;28;20052;-76
2023/11/29 10:14:41;;;;;;;4.75;2.78;;;;;;;;;;5024876;28;20049;-78
2023/11/29 10:17:16;;;;;;;8.10;3.67;;;;;;;;;;5024656;28;20048;-76
2023/11/29 10:19:47;;;;;;;3.17;2.97;;;;;;;;;;5024906;28;20053;-75
2023/11/29 10:22:19;;;;;;;7.13;2.10;;;;;;;;;;5023566;28;20065;-76
2023/11/29 10:24:50;;;;;;;2.72;2.40;;;;;;;;;;5025018;28;20509;-75
2023/11/29 10:27:21;;;;;;;3.70;3.40;;;;;;;;;;5025162;28;20421;-75
2023/11/29 10:29:52;;;;;;;2.20;2.10;;;;;;;;;;5025331;28;20049;-74
2023/11/29 10:32:23;;;;;;;3.08;2.85;;;;;;;;;;5024309;28;20053;-74
2023/11/29 10:34:55;;;;;;;2.80;2.70;;;;;;;;;;5023792;28;20056;-81
2023/11/29 10:37:26;;;;;;;4.05;3.42;;;;;;;;;;5024222;28;20064;-75
2023/11/29 10:39:58;;;;;;;4.38;2.88;;;;;;;;;;5026280;28;20053;-75
2023/11/29 10:42:29;;;;;;;3.80;3.22;;;;;;;;;;5043955;28;20063;-75
2023/11/29 10:45:00;;;;;;;4.45;2.95;;;;;;;;;;5043733;28;20504;-77
2023/11/29 10:47:37;;;;;;;3.83;3.30;;;;;;;;;;5043729;28;20537;-76
2023/11/29 10:50:10;;;;;;;5.18;4.57;;;;;;;;;;5043765;28;20843;-75
2023/11/29 10:52:41;;;;;;;4.78;3.22;;;;;;;;;;5043632;28;20040;-76
2023/11/29 10:55:14;;;;;;;2.72;2.58;;;;;;;;;;5044337;28;20049;-76
2023/11/29 10:58:08;;;;;;;3.85;3.60;;;;;;;;;;5043702;28;20398;-76
2023/11/29 11:00:44;;;;;;;3.63;3.33;;;;;;;;;;5044266;28;20515;-76
2023/11/29 11:03:39;;;;;;;3.58;3.38;;;;;;;;;;5044428;28;20064;-76
2023/11/29 11:06:22;;;;;;;3.50;2.70;;;;;;;;;;5043504;28;20053;-76
2023/11/29 11:08:55;;;;;;;2.97;2.78;;;;;;;;;;5043940;28;20049;-76
2023/11/29 11:11:44;;;;;;;3.13;3.03;;;;;;;;;;5043304;28;20064;-80
2023/11/29 11:14:20;;;;;;;2.92;2.83;;;;;;;;;;5043704;28;20051;-76
2023/11/29 11:16:59;;;;;;;4.50;2.70;;;;;;;;;;5043754;28;20049;-77
2023/11/29 11:19:42;;;;;;;4.13;3.47;;;;;;;;;;5043357;28;20060;-76
2023/11/29 11:22:14;;;;;;;4.28;3.05;;;;;;;;;;5044258;28;20048;-76
2023/11/29 11:24:53;;;;;;;3.33;3.13;;;;;;;;;;5044282;28;20508;-75
2023/11/29 11:27:35;;;;;;;7.50;3.33;;;;;;;;;;5042824;28;20053;-77
2023/11/29 11:30:16;;;;;;;3.03;2.92;;;;;;;;;;5043144;28;20052;-75
2023/11/29 11:32:55;;;;;;;3.38;3.17;;;;;;;;;;5043269;28;20492;-76
2023/11/29 11:35:30;;;;;;;3.00;2.67;;;;;;;;;;5043077;28;20056;-76
2023/11/29 11:38:06;;;;;;;3.13;2.92;;;;;;;;;;5042082;28;20163;-77
2023/11/29 11:40:40;;;;;;;3.17;2.92;;;;;;;;;;5042767;28;20060;-77
2023/11/29 11:43:18;;;;;;;4.13;2.90;;;;;;;;;;5043331;28;20048;-76
2023/11/29 11:45:49;;;;;;;3.30;2.97;;;;;;;;;;5042704;28;20037;-77
2023/11/29 11:48:22;;;;;;;2.15;2.05;;;;;;;;;;5041991;28;20060;-76
2023/11/29 11:50:54;;;;;;;3.90;3.00;;;;;;;;;;5042825;28;20056;-78
2023/11/29 11:53:25;;;;;;;2.40;2.30;;;;;;;;;;5041876;28;20064;-77
2023/11/29 11:55:57;;;;;;;2.80;2.33;;;;;;;;;;5042939;28;20056;-76
2023/11/29 11:58:40;;;;;;;2.65;2.55;;;;;;;;;;5043770;28;20510;-76
2023/11/29 12:01:10;;;;;;;1.05;1.05;;;;;;;;;;5042828;28;20053;-77
2023/11/29 12:06:43;;;;;;;6.05;2.80;;;;;;;;;;5042524;28;20584;-77
2023/11/29 12:09:14;;;;;;;2.58;1.92;;;;;;;;;;5043070;28;20045;-77
2023/11/29 12:11:47;;;;;;;1.33;1.33;;;;;;;;;;5040955;28;20052;-76
2023/11/29 12:14:19;;;;;;;1.60;1.30;;;;;;;;;;5041330;28;20063;-77
2023/11/29 12:16:52;;;;;;;3.75;2.67;;;;;;;;;;5042107;28;20451;-74
2023/11/29 12:19:23;;;;;;;2.97;1.50;;;;;;;;;;5042810;28;20063;-77
2023/11/29 12:21:55;;;;;;;1.83;1.73;;;;;;;;;;5044613;28;20051;-76
2023/11/29 12:24:27;;;;;;;2.28;2.17;;;;;;;;;;5042849;28;20049;-77
2023/11/29 12:27:13;;;;;;;3.83;2.33;;;;;;;;;;5042329;28;20053;-82
2023/11/29 12:29:46;;;;;;;2.72;2.53;;;;;;;;;;5042651;28;20060;-77
2023/11/29 12:32:18;;;;;;;5.30;2.88;;;;;;;;;;5040488;28;20044;-76
2023/11/29 12:34:48;;;;;;;2.35;2.25;;;;;;;;;;5042148;28;20048;-76
2023/11/29 12:37:20;;;;;;;2.53;2.33;;;;;;;;;;5038753;28;20096;-76
2023/11/29 12:39:50;;;;;;;2.63;2.53;;;;;;;;;;5041708;28;20049;-77
2023/11/29 12:42:20;;;;;;;3.85;2.38;;;;;;;;;;5041355;28;20060;-77
2023/11/29 12:44:52;;;;;;;2.22;2.13;;;;;;;;;;5042830;28;20045;-77
2023/11/29 12:47:23;;;;;;;2.67;2.53;;;;;;;;;;5040298;28;20063;-79
2023/11/29 12:49:53;;;;;;;2.45;2.30;;;;;;;;;;5041684;28;20479;-77
2023/11/29 12:52:25;;;;;;;2.25;2.15;;;;;;;;;;5041934;28;20056;-78
2023/11/29 12:54:56;;;;;;;2.25;2.15;;;;;;;;;;5041501;28;20127;-76
2023/11/29 12:57:27;;;;;;;3.33;2.58;;;;;;;;;;5041381;28;20057;-76
2023/11/29 12:59:57;;;;;;;4.38;2.47;;;;;;;;;;5040810;28;20053;-76
2023/11/29 13:02:27;;;;;;;2.40;2.30;;;;;;;;;;5042299;28;20056;-76
2023/11/29 13:04:58;;;;;;;2.35;2.25;;;;;;;;;;5041691;28;20492;-78
2023/11/29 13:07:30;;;;;;;2.53;2.42;;;;;;;;;;5041576;28;20057;-77
2023/11/29 13:10:00;;;;;;;2.70;2.60;;;;;;;;;;5041880;28;20053;-76
2023/11/29 13:12:30;;;;;;;3.38;3.17;;;;;;;;;;5041663;28;20080;-77
2023/11/29 13:15:01;;;;;;;7.72;3.80;;;;;;;;;;5041610;28;20048;-75
2023/11/29 13:17:32;;;;;;;7.47;2.92;;;;;;;;;;5040460;28;20057;-75
2023/11/29 13:20:02;;;;;;;2.35;2.22;;;;;;;;;;5041600;28;20045;-77
2023/11/29 13:22:33;;;;;;;7.10;6.65;;;;;;;;;;5040121;28;20060;-77
2023/11/29 13:25:04;;;;;;;2.38;2.28;;;;;;;;;;5041742;28;20053;-76
2023/11/29 13:27:35;;;;;;;2.35;2.13;;;;;;;;;;5041444;28;20068;-76
2023/11/29 13:30:07;;;;;;;2.33;2.08;;;;;;;;;;5044638;28;20053;-75
2023/11/29 13:32:38;;;;;;;2.15;1.77;;;;;;;;;;5045643;28;20057;-77
2023/11/29 13:35:09;;;;;;;3.22;1.90;;;;;;;;;;5045773;28;20049;-78
2023/11/29 13:37:41;;;;;;;1.92;1.83;;;;;;;;;;5045002;28;20060;-76
2023/11/29 13:40:11;;;;;;;1.75;1.65;;;;;;;;;;5045739;28;20064;-77
2023/11/29 13:42:42;;;;;;;3.13;2.85;;;;;;;;;;5046065;28;20044;-77
2023/11/29 13:45:12;;;;;;;2.95;2.75;;;;;;;;;;5045361;28;20048;-76
2023/11/29 13:50:46;;;;;;;1.95;1.85;;;;;;;;;;5045114;28;20052;-77
2023/11/29 13:53:17;;;;;;;2.05;1.77;;;;;;;;;;5045145;28;20048;-77
2023/11/29 13:55:47;;;;;;;1.73;1.63;;;;;;;;;;5044964;28;20052;-77
2023/11/29 13:58:17;;;;;;;1.50;1.45;;;;;;;;;;5045267;28;20044;-80
2023/11/29 14:00:48;;;;;;;1.80;1.70;;;;;;;;;;5045632;28;20558;-76
2023/11/29 14:03:19;;;;;;;2.30;2.20;;;;;;;;;;5045510;28;20061;-76
2023/11/29 14:06:02;;;;;;;3.60;2.90;;;;;;;;;;5043975;28;20075;-76
2023/11/29 14:08:33;;;;;;;4.55;2.13;;;;;;;;;;5044689;28;20060;-77
2023/11/29 14:11:04;;;;;;;2.67;2.53;;;;;;;;;;5045157;28;20060;-76
2023/11/29 14:13:35;;;;;;;2.28;2.17;;;;;;;;;;5044586;28;20087;-76
2023/11/29 14:16:05;;;;;;;2.60;2.40;;;;;;;;;;5044848;28;20044;-77
2023/11/29 14:18:38;;;;;;;3.03;2.78;;;;;;;;;;5045073;28;20049;-77
2023/11/29 14:21:09;;;;;;;2.80;2.60;;;;;;;;;;5045365;28;20045;-77
2023/11/29 14:23:40;;;;;;;2.10;2.00;;;;;;;;;;5045628;28;20048;-81
2023/11/29 14:26:10;;;;;;;2.28;2.17;;;;;;;;;;5044743;28;20170;-77
2023/11/29 14:28:41;;;;;;;2.00;1.90;;;;;;;;;;5045177;28;20048;-76
2023/11/29 14:31:11;;;;;;;2.00;1.90;;;;;;;;;;5044605;28;20056;-76
2023/11/29 14:33:42;;;;;;;3.53;3.33;;;;;;;;;;5044411;28;20419;-76
2023/11/29 14:36:13;;;;;;;2.92;2.20;;;;;;;;;;5044759;28;20514;-78
2023/11/29 14:38:43;;;;;;;2.13;2.03;;;;;;;;;;5044240;28;20053;-77
2023/11/29 14:41:14;;;;;;;1.90;1.80;;;;;;;;;;5044296;28;20052;-78
2023/11/29 14:43:45;;;;;;;6.93;3.60;;;;;;;;;;5045851;28;20060;-77
2023/11/29 14:46:16;;;;;;;3.45;2.90;;;;;;;;;;5044743;28;20056;-77
2023/11/29 14:48:47;;;;;;;2.55;2.20;;;;;;;;;;5044044;28;20041;-76
2023/11/29 14:51:18;;;;;;;3.38;2.55;;;;;;;;;;5049637;28;20041;-76
2023/11/29 14:53:49;;;;;;;3.97;2.70;;;;;;;;;;5045593;28;20046;-76
2023/11/29 14:56:22;;;;;;;2.88;2.58;;;;;;;;;;5046022;28;20056;-79
2023/11/29 14:58:59;;;;;;;3.22;2.25;;;;;;;;;;5044685;28;20036;-77
2023/11/29 15:01:29;;;;;;;2.22;2.13;;;;;;;;;;5044309;28;20045;-76
2023/11/29 15:04:01;;;;;;;2.40;2.20;;;;;;;;;;5044599;28;20512;-77
2023/11/29 15:06:32;;;;;;;3.13;2.92;;;;;;;;;;5045338;28;20484;-77
2023/11/29 15:09:02;;;;;;;2.38;2.28;;;;;;;;;;5042179;28;20057;-77
2023/11/29 15:11:33;;;;;;;2.08;1.92;;;;;;;;;;5044490;28;20515;-77
2023/11/29 15:14:05;;;;;;;7.53;3.90;;;;;;;;;;5044173;28;20467;-77
2023/11/29 15:16:39;;;;;;;2.30;2.20;;;;;;;;;;5044599;28;20531;-76
2023/11/29 15:19:12;;;;;;;2.25;2.15;;;;;;;;;;5044949;28;20040;-77
2023/11/29 15:21:42;;;;;;;2.42;2.33;;;;;;;;;;5043781;28;20045;-76